Terminal Aerodrome Forecast
Issued by NWS St Louis, MO

Home | Current Version | Previous Version | Text Only | Print | Product List | Glossary On
Versions: 1 2 3 4 5 6 7 8 9 10 11 12 13 14
000
FTUS43 KLSX 262300
TAFCOU
TAF
KCOU 262320Z 2700/2724 29012KT P6SM SKC
     FM270200 32008KT P6SM SCT030
     FM271500 35006KT P6SM SCT030
     FM272200 09006KT P6SM SCT030=

USA.gov is the U.S. government's official web portal to all federal, state and local government web resources and services.